Time;durP1;ratioP1;P1;durP2;ratioP2;P2;SDS_P1;SDS_P2;PMS_P1;PMS_P2;Temp;Humidity;BMP_temperature;BMP_pressure;BME280_temperature;BME280_humidity;BME280_pressure;Samples;Min_cycle;Max_cycle;Signal;HPM_P1;HPM_P2
2022/12/02 00:01:47;;;;;;;28.15;13.43;;;;;;;;;;5094459;28;20016;-73
2022/12/02 00:04:33;;;;;;;30.23;14.82;;;;;;;;;;5094596;28;20016;-75
2022/12/02 00:07:19;;;;;;;23.92;13.35;;;;;;;;;;5079281;28;20054;-75
2022/12/02 00:10:25;;;;;;;27.02;13.43;;;;;;;;;;5094452;28;20031;-73
2022/12/02 00:13:19;;;;;;;25.10;12.70;;;;;;;;;;5094565;28;20062;-76
2022/12/02 00:16:04;;;;;;;23.27;13.35;;;;;;;;;;5092756;28;20024;-75
2022/12/02 00:18:50;;;;;;;23.38;12.27;;;;;;;;;;5094501;28;20012;-74
2022/12/02 00:21:36;;;;;;;23.58;12.52;;;;;;;;;;5096046;28;20012;-73
2022/12/02 00:24:21;;;;;;;36.72;20.02;;;;;;;;;;5098175;28;20059;-74
2022/12/02 00:27:07;;;;;;;26.08;13.20;;;;;;;;;;5097439;28;20012;-75
2022/12/02 00:29:53;;;;;;;27.30;14.98;;;;;;;;;;5096414;28;20020;-73
2022/12/02 00:32:38;;;;;;;22.60;12.60;;;;;;;;;;5097890;28;20030;-74
2022/12/02 00:35:24;;;;;;;34.08;18.63;;;;;;;;;;5097330;28;20486;-74
2022/12/02 00:38:09;;;;;;;23.30;12.65;;;;;;;;;;5097096;28;20054;-74
2022/12/02 00:40:55;;;;;;;27.13;13.05;;;;;;;;;;5097411;28;20024;-74
2022/12/02 00:46:45;;;;;;;23.48;12.93;;;;;;;;;;5097555;28;20106;-75
2022/12/02 00:49:30;;;;;;;26.23;13.80;;;;;;;;;;5081997;28;20102;-76
2022/12/02 00:52:16;;;;;;;25.73;13.65;;;;;;;;;;5082791;28;20036;-74
2022/12/02 00:55:02;;;;;;;36.65;20.27;;;;;;;;;;5097016;28;20031;-73
2022/12/02 00:57:48;;;;;;;29.33;16.23;;;;;;;;;;5082127;28;20031;-74
2022/12/02 01:00:33;;;;;;;29.65;15.25;;;;;;;;;;5097078;28;20016;-73
2022/12/02 01:03:19;;;;;;;26.85;13.75;;;;;;;;;;5096769;28;20019;-75
2022/12/02 01:06:04;;;;;;;32.33;13.82;;;;;;;;;;5096794;28;20024;-73
2022/12/02 01:08:50;;;;;;;28.33;15.00;;;;;;;;;;5096634;28;20093;-74
2022/12/02 01:11:36;;;;;;;26.38;13.95;;;;;;;;;;5082553;28;20035;-74
2022/12/02 01:14:21;;;;;;;27.88;14.63;;;;;;;;;;5096691;28;20024;-76
2022/12/02 01:17:07;;;;;;;26.45;14.07;;;;;;;;;;5082662;28;20038;-75
2022/12/02 01:19:52;;;;;;;24.73;13.50;;;;;;;;;;5096932;28;20111;-74
2022/12/02 01:22:38;;;;;;;27.60;13.40;;;;;;;;;;5082210;28;20009;-75
2022/12/02 01:25:23;;;;;;;26.63;13.27;;;;;;;;;;5096420;28;20134;-74
2022/12/02 01:28:09;;;;;;;27.40;13.77;;;;;;;;;;5096356;28;20081;-73
2022/12/02 01:30:55;;;;;;;25.55;13.10;;;;;;;;;;5081375;28;20027;-75
2022/12/02 01:33:40;;;;;;;27.60;14.48;;;;;;;;;;5096862;28;20020;-74
2022/12/02 01:36:26;;;;;;;30.27;15.18;;;;;;;;;;5096213;28;20023;-74
2022/12/02 01:39:12;;;;;;;33.00;16.05;;;;;;;;;;5095345;28;20021;-74
2022/12/02 01:41:57;;;;;;;31.02;14.77;;;;;;;;;;5096553;28;20034;-74
2022/12/02 01:44:43;;;;;;;29.33;14.30;;;;;;;;;;5096453;28;20118;-74
2022/12/02 01:47:29;;;;;;;31.75;14.75;;;;;;;;;;5081730;28;20472;-75
2022/12/02 01:50:15;;;;;;;29.80;14.43;;;;;;;;;;5081271;28;20405;-74
2022/12/02 01:53:01;;;;;;;27.83;13.60;;;;;;;;;;5096096;28;20034;-74
2022/12/02 01:55:47;;;;;;;28.85;14.85;;;;;;;;;;5095887;28;20436;-74
2022/12/02 01:58:32;;;;;;;24.98;13.05;;;;;;;;;;5081895;28;20028;-74
2022/12/02 02:01:22;;;;;;;27.83;15.07;;;;;;;;;;5081289;28;20051;-74
2022/12/02 02:04:08;;;;;;;33.03;16.00;;;;;;;;;;5095574;28;20012;-74
2022/12/02 02:06:54;;;;;;;31.65;16.23;;;;;;;;;;5095954;28;20012;-74
2022/12/02 02:09:39;;;;;;;30.52;16.05;;;;;;;;;;5080976;28;20352;-74
2022/12/02 02:12:25;;;;;;;35.03;15.70;;;;;;;;;;5081621;28;20089;-73
2022/12/02 02:15:12;;;;;;;33.35;17.15;;;;;;;;;;5079560;28;20169;-73
2022/12/02 02:17:58;;;;;;;34.50;16.90;;;;;;;;;;5095399;28;20161;-73
2022/12/02 02:20:43;;;;;;;31.27;16.15;;;;;;;;;;5095469;28;20080;-73
2022/12/02 02:23:29;;;;;;;32.20;15.95;;;;;;;;;;5095459;28;20016;-74
2022/12/02 02:26:15;;;;;;;29.70;15.80;;;;;;;;;;5095648;28;20349;-74
2022/12/02 02:29:01;;;;;;;35.42;17.05;;;;;;;;;;5095467;28;20115;-76
2022/12/02 02:31:46;;;;;;;33.42;15.98;;;;;;;;;;5095258;28;20031;-75
2022/12/02 02:34:32;;;;;;;37.50;16.77;;;;;;;;;;5095576;28;20035;-73
2022/12/02 02:37:17;;;;;;;33.92;16.17;;;;;;;;;;5094465;28;20055;-74
2022/12/02 02:40:03;;;;;;;32.95;16.95;;;;;;;;;;5095331;28;20047;-74
2022/12/02 02:42:51;;;;;;;30.17;16.33;;;;;;;;;;5095363;28;20402;-74
2022/12/02 02:45:38;;;;;;;37.55;15.73;;;;;;;;;;5095523;28;20432;-73
2022/12/02 02:48:24;;;;;;;29.83;15.68;;;;;;;;;;5094985;28;20112;-74
2022/12/02 02:51:11;;;;;;;29.23;14.88;;;;;;;;;;5095187;28;20019;-74
2022/12/02 02:53:56;;;;;;;34.25;14.85;;;;;;;;;;5081536;28;20055;-74
2022/12/02 02:56:42;;;;;;;26.02;14.48;;;;;;;;;;5099056;28;20016;-74
2022/12/02 02:59:27;;;;;;;30.20;15.02;;;;;;;;;;5096190;28;20062;-74
2022/12/02 03:02:13;;;;;;;29.77;15.60;;;;;;;;;;5095240;28;20039;-74
2022/12/02 03:04:59;;;;;;;29.50;15.38;;;;;;;;;;5094648;28;20024;-74
2022/12/02 03:07:44;;;;;;;31.42;16.35;;;;;;;;;;5095267;28;20016;-75
2022/12/02 03:10:30;;;;;;;28.48;15.80;;;;;;;;;;5094198;28;20020;-74
2022/12/02 03:13:16;;;;;;;28.52;15.25;;;;;;;;;;5093550;28;20513;-74
2022/12/02 03:16:03;;;;;;;31.15;15.90;;;;;;;;;;5094457;28;20024;-74
2022/12/02 03:18:50;;;;;;;33.65;17.33;;;;;;;;;;5094549;28;20357;-73
2022/12/02 03:21:36;;;;;;;32.97;15.43;;;;;;;;;;5095091;28;20020;-74
2022/12/02 03:24:21;;;;;;;34.00;16.20;;;;;;;;;;5094368;28;20016;-73
2022/12/02 03:27:07;;;;;;;33.78;15.68;;;;;;;;;;5094684;28;20035;-73
2022/12/02 03:29:53;;;;;;;31.77;16.13;;;;;;;;;;5094565;28;20032;-73
2022/12/02 03:32:38;;;;;;;32.58;16.33;;;;;;;;;;5080232;28;20016;-73
2022/12/02 03:35:25;;;;;;;28.33;14.60;;;;;;;;;;5080367;28;20020;-73
2022/12/02 03:38:10;;;;;;;27.80;15.20;;;;;;;;;;5094273;28;20483;-74
2022/12/02 03:40:56;;;;;;;29.00;15.23;;;;;;;;;;5094641;28;20039;-74
2022/12/02 03:43:41;;;;;;;26.10;14.15;;;;;;;;;;5080056;28;20044;-73
2022/12/02 03:46:28;;;;;;;25.25;13.73;;;;;;;;;;5080239;28;20020;-73
2022/12/02 03:49:14;;;;;;;31.98;14.65;;;;;;;;;;5080045;28;20101;-73
2022/12/02 03:52:00;;;;;;;33.03;15.65;;;;;;;;;;5080458;28;20039;-73
2022/12/02 03:54:47;;;;;;;30.10;14.95;;;;;;;;;;5096165;28;20055;-74
2022/12/02 03:57:33;;;;;;;31.20;15.75;;;;;;;;;;5097863;28;20265;-75
2022/12/02 04:00:19;;;;;;;34.28;16.40;;;;;;;;;;5098195;28;20410;-75
2022/12/02 04:03:04;;;;;;;31.40;14.40;;;;;;;;;;5097906;28;20047;-74
2022/12/02 04:05:50;;;;;;;29.10;14.73;;;;;;;;;;5097511;28;20035;-74
2022/12/02 04:08:35;;;;;;;28.90;15.75;;;;;;;;;;5098077;28;20038;-74
2022/12/02 04:11:21;;;;;;;32.72;16.45;;;;;;;;;;5083456;28;20456;-74
2022/12/02 04:14:06;;;;;;;28.95;15.52;;;;;;;;;;5083788;28;20114;-74
2022/12/02 04:16:52;;;;;;;31.92;16.50;;;;;;;;;;5097710;28;20074;-73
2022/12/02 04:19:38;;;;;;;32.00;16.88;;;;;;;;;;5098260;28;20329;-74
2022/12/02 04:22:23;;;;;;;30.85;16.45;;;;;;;;;;5098112;28;20043;-75
2022/12/02 04:25:09;;;;;;;31.90;15.27;;;;;;;;;;5097775;28;20099;-75
2022/12/02 04:27:54;;;;;;;36.75;18.80;;;;;;;;;;5097794;28;20027;-74
2022/12/02 04:30:40;;;;;;;32.85;18.25;;;;;;;;;;5083503;28;20060;-74
2022/12/02 04:33:26;;;;;;;34.38;17.80;;;;;;;;;;5097697;28;20020;-74
2022/12/02 04:36:11;;;;;;;33.83;16.45;;;;;;;;;;5083583;28;20371;-75
2022/12/02 04:38:57;;;;;;;35.85;17.77;;;;;;;;;;5097578;28;20044;-73
2022/12/02 04:41:42;;;;;;;33.25;17.13;;;;;;;;;;5082714;28;20317;-74
2022/12/02 04:44:28;;;;;;;33.83;17.10;;;;;;;;;;5083814;28;20039;-75
2022/12/02 04:47:13;;;;;;;30.58;16.35;;;;;;;;;;5096590;28;20582;-74
2022/12/02 04:49:59;;;;;;;32.40;14.85;;;;;;;;;;5097572;28;20093;-73
2022/12/02 04:52:45;;;;;;;35.20;16.40;;;;;;;;;;5098017;28;20089;-74
2022/12/02 04:55:30;;;;;;;35.25;16.67;;;;;;;;;;5097251;28;20032;-74
2022/12/02 04:58:16;;;;;;;31.63;16.92;;;;;;;;;;5097039;28;20016;-75
2022/12/02 05:01:01;;;;;;;39.97;17.48;;;;;;;;;;5096829;28;20016;-74
2022/12/02 05:03:47;;;;;;;35.63;17.98;;;;;;;;;;5096465;28;20467;-74
2022/12/02 05:06:32;;;;;;;36.97;17.85;;;;;;;;;;5081304;28;20097;-74
2022/12/02 05:09:18;;;;;;;31.45;17.23;;;;;;;;;;5083101;28;20052;-74
2022/12/02 05:12:04;;;;;;;35.42;17.77;;;;;;;;;;5097030;28;20039;-75
2022/12/02 05:14:50;;;;;;;37.08;17.45;;;;;;;;;;5082794;28;20016;-73
2022/12/02 05:17:36;;;;;;;33.15;17.80;;;;;;;;;;5096046;28;20020;-72
2022/12/02 05:20:22;;;;;;;37.97;18.00;;;;;;;;;;5096707;28;20016;-71
2022/12/02 05:23:07;;;;;;;35.28;18.13;;;;;;;;;;5096799;28;20451;-73
2022/12/02 05:25:53;;;;;;;34.65;19.70;;;;;;;;;;5097237;28;20058;-74
2022/12/02 05:28:38;;;;;;;38.72;20.50;;;;;;;;;;5096762;28;20089;-75
2022/12/02 05:31:24;;;;;;;37.63;19.85;;;;;;;;;;5096236;28;20107;-74
2022/12/02 05:34:10;;;;;;;38.72;21.17;;;;;;;;;;5096388;28;20089;-74
2022/12/02 05:36:55;;;;;;;42.35;20.80;;;;;;;;;;5095921;28;20075;-73
2022/12/02 05:39:41;;;;;;;38.35;20.63;;;;;;;;;;5082218;28;20459;-74
2022/12/02 05:42:26;;;;;;;43.15;21.15;;;;;;;;;;5096521;28;20016;-75
2022/12/02 05:45:18;;;;;;;42.95;20.50;;;;;;;;;;5096129;28;20030;-75
2022/12/02 05:48:04;;;;;;;36.13;20.90;;;;;;;;;;5095503;28;20024;-74
2022/12/02 05:50:52;;;;;;;40.38;21.10;;;;;;;;;;5095555;28;20107;-73
2022/12/02 05:53:39;;;;;;;40.50;20.05;;;;;;;;;;5095833;28;20337;-76
2022/12/02 05:56:26;;;;;;;39.60;20.77;;;;;;;;;;5095859;28;20432;-74
2022/12/02 05:59:16;;;;;;;47.30;22.25;;;;;;;;;;5096148;28;20436;-74
2022/12/02 06:02:02;;;;;;;42.92;20.92;;;;;;;;;;5096071;28;20111;-75
2022/12/02 06:04:47;;;;;;;46.67;22.40;;;;;;;;;;5096357;28;20016;-75
2022/12/02 06:07:33;;;;;;;39.97;20.42;;;;;;;;;;5081574;28;20024;-75
2022/12/02 06:10:18;;;;;;;43.30;21.40;;;;;;;;;;5104926;28;20020;-74
2022/12/02 06:13:13;;;;;;;41.63;20.10;;;;;;;;;;5111585;28;20031;-74
2022/12/02 06:15:59;;;;;;;42.47;20.48;;;;;;;;;;5081761;28;20055;-75
2022/12/02 06:18:44;;;;;;;42.88;19.60;;;;;;;;;;5096066;28;20020;-75
2022/12/02 06:21:30;;;;;;;42.88;19.98;;;;;;;;;;5095539;28;20332;-75
2022/12/02 06:24:16;;;;;;;39.15;19.80;;;;;;;;;;5095902;28;20393;-75
2022/12/02 06:27:02;;;;;;;44.42;21.13;;;;;;;;;;5095482;28;20012;-75
2022/12/02 06:30:01;;;;;;;49.38;22.10;;;;;;;;;;5081825;28;20107;-75
2022/12/02 06:32:52;;;;;;;40.83;20.77;;;;;;;;;;5081288;28;20089;-75
2022/12/02 06:35:38;;;;;;;50.65;21.75;;;;;;;;;;5095377;28;20107;-74
2022/12/02 06:38:31;;;;;;;39.83;20.35;;;;;;;;;;5080589;28;20040;-75
2022/12/02 06:41:22;;;;;;;47.33;21.67;;;;;;;;;;5094078;28;20011;-75
2022/12/02 06:47:31;;;;;;;42.83;20.02;;;;;;;;;;5094970;28;20099;-76
2022/12/02 06:50:31;;;;;;;43.92;21.73;;;;;;;;;;5080712;28;20448;-75
2022/12/02 06:53:17;;;;;;;47.45;21.48;;;;;;;;;;5095246;28;20027;-75
2022/12/02 06:56:14;;;;;;;40.40;20.77;;;;;;;;;;5095222;28;20126;-75
2022/12/02 06:59:01;;;;;;;39.30;18.83;;;;;;;;;;5080956;28;20057;-74
2022/12/02 07:01:47;;;;;;;38.38;19.08;;;;;;;;;;5080121;28;20024;-75
2022/12/02 07:04:33;;;;;;;45.33;19.75;;;;;;;;;;5095102;28;20443;-75
2022/12/02 07:07:19;;;;;;;44.85;20.35;;;;;;;;;;5094246;28;20099;-75
2022/12/02 07:10:06;;;;;;;47.88;19.73;;;;;;;;;;5088399;28;20020;-74
2022/12/02 07:12:52;;;;;;;43.67;20.88;;;;;;;;;;5103686;28;20046;-73
2022/12/02 07:15:41;;;;;;;44.47;22.45;;;;;;;;;;5085367;28;20047;-75
2022/12/02 07:18:26;;;;;;;43.42;23.27;;;;;;;;;;5084222;28;20016;-74
2022/12/02 07:21:13;;;;;;;49.35;22.48;;;;;;;;;;5101367;28;20099;-74
2022/12/02 07:23:58;;;;;;;45.00;20.52;;;;;;;;;;5090625;28;20028;-75
2022/12/02 07:26:44;;;;;;;53.47;23.23;;;;;;;;;;5102223;28;20039;-75
2022/12/02 07:29:30;;;;;;;49.13;23.35;;;;;;;;;;5089163;28;20333;-74
2022/12/02 07:32:16;;;;;;;39.47;20.30;;;;;;;;;;5107083;28;20023;-73
2022/12/02 07:35:01;;;;;;;41.95;21.00;;;;;;;;;;5107945;28;20062;-74
2022/12/02 07:37:47;;;;;;;41.45;20.73;;;;;;;;;;5105448;28;20036;-74
2022/12/02 07:40:33;;;;;;;42.72;20.70;;;;;;;;;;5091988;28;20804;-75
2022/12/02 07:43:18;;;;;;;51.13;21.95;;;;;;;;;;5108079;28;20032;-75
2022/12/02 07:46:04;;;;;;;45.13;21.65;;;;;;;;;;5107289;28;20035;-75
2022/12/02 07:48:50;;;;;;;41.58;21.67;;;;;;;;;;5098029;27;20066;-76
2022/12/02 07:51:35;;;;;;;41.20;20.45;;;;;;;;;;5108885;28;20020;-75
2022/12/02 07:54:21;;;;;;;45.60;21.50;;;;;;;;;;5093933;28;20062;-76
2022/12/02 07:57:07;;;;;;;41.85;19.80;;;;;;;;;;5108308;28;20096;-74
2022/12/02 07:59:52;;;;;;;42.75;20.23;;;;;;;;;;5084628;28;20367;-75
2022/12/02 08:02:38;;;;;;;48.05;21.55;;;;;;;;;;5108523;28;20023;-75
2022/12/02 08:05:24;;;;;;;43.28;19.42;;;;;;;;;;5107107;28;20041;-74
2022/12/02 08:08:09;;;;;;;46.65;20.67;;;;;;;;;;5094485;28;20422;-74
2022/12/02 08:10:55;;;;;;;42.30;20.23;;;;;;;;;;5094676;28;20659;-75
2022/12/02 08:13:40;;;;;;;43.10;20.42;;;;;;;;;;5083251;28;20089;-75
2022/12/02 08:16:26;;;;;;;44.22;22.10;;;;;;;;;;5083481;28;20648;-74
2022/12/02 08:19:12;;;;;;;42.90;20.75;;;;;;;;;;5083858;28;20043;-75
2022/12/02 08:21:57;;;;;;;43.50;21.27;;;;;;;;;;5093589;28;20397;-74
2022/12/02 08:24:43;;;;;;;49.65;21.67;;;;;;;;;;5119342;28;20016;-74
2022/12/02 08:27:29;;;;;;;46.47;19.85;;;;;;;;;;5101186;28;20576;-73
2022/12/02 08:30:16;;;;;;;41.30;20.63;;;;;;;;;;5103065;28;20363;-75
2022/12/02 08:33:02;;;;;;;66.55;26.42;;;;;;;;;;5108399;27;20035;-73
2022/12/02 08:35:47;;;;;;;63.35;25.48;;;;;;;;;;5090925;28;20020;-73
2022/12/02 08:38:33;;;;;;;56.72;24.95;;;;;;;;;;5087852;28;20146;-73
2022/12/02 08:41:18;;;;;;;62.28;24.08;;;;;;;;;;5106841;28;20024;-75
2022/12/02 08:44:04;;;;;;;56.35;22.85;;;;;;;;;;5092333;28;20032;-74
2022/12/02 08:46:50;;;;;;;56.35;23.30;;;;;;;;;;5106546;28;20027;-77
2022/12/02 08:49:36;;;;;;;44.83;20.40;;;;;;;;;;5104879;28;20102;-75
2022/12/02 08:52:22;;;;;;;48.17;21.65;;;;;;;;;;5106422;28;20058;-75
2022/12/02 08:55:07;;;;;;;50.67;22.83;;;;;;;;;;5108123;28;20019;-74
2022/12/02 08:57:53;;;;;;;49.70;22.98;;;;;;;;;;5108475;27;20448;-77
2022/12/02 09:00:39;;;;;;;54.67;24.52;;;;;;;;;;5104879;28;20031;-75
2022/12/02 09:03:25;;;;;;;48.33;22.98;;;;;;;;;;5107507;28;20032;-75
2022/12/02 09:06:11;;;;;;;53.42;23.90;;;;;;;;;;5106338;28;20070;-74
2022/12/02 09:08:56;;;;;;;53.58;25.80;;;;;;;;;;5106998;27;20030;-76
2022/12/02 09:11:42;;;;;;;62.88;29.60;;;;;;;;;;5094810;28;20110;-74
2022/12/02 09:14:28;;;;;;;143.82;65.20;;;;;;;;;;5104544;28;20091;-75
2022/12/02 09:17:13;;;;;;;58.92;29.25;;;;;;;;;;5117071;28;20019;-73
2022/12/02 09:19:59;;;;;;;55.22;26.33;;;;;;;;;;5081500;28;20043;-76
2022/12/02 09:22:45;;;;;;;53.05;25.90;;;;;;;;;;5117306;28;20145;-73
2022/12/02 09:25:30;;;;;;;60.80;25.58;;;;;;;;;;5112945;28;20027;-73
2022/12/02 09:28:16;;;;;;;54.30;25.23;;;;;;;;;;5108053;28;20371;-76
2022/12/02 09:31:01;;;;;;;49.38;23.23;;;;;;;;;;5108402;27;20039;-74
2022/12/02 09:33:47;;;;;;;45.50;22.42;;;;;;;;;;5091475;28;20394;-75
2022/12/02 09:36:33;;;;;;;43.60;21.67;;;;;;;;;;5106978;28;20039;-73
2022/12/02 09:39:18;;;;;;;47.97;23.30;;;;;;;;;;5088553;28;20023;-75
2022/12/02 09:42:05;;;;;;;46.40;22.10;;;;;;;;;;5107962;28;20110;-75
2022/12/02 09:44:50;;;;;;;42.03;21.00;;;;;;;;;;5091190;28;20020;-74
2022/12/02 09:47:36;;;;;;;47.42;23.02;;;;;;;;;;5092357;28;20051;-75
2022/12/02 09:50:22;;;;;;;56.17;25.85;;;;;;;;;;5104128;28;20028;-73
2022/12/02 09:53:11;;;;;;;52.08;26.52;;;;;;;;;;5106388;28;20032;-74
2022/12/02 09:55:56;;;;;;;46.90;23.35;;;;;;;;;;5106000;28;21071;-75
2022/12/02 09:58:42;;;;;;;45.60;21.65;;;;;;;;;;5103807;28;20068;-74
2022/12/02 10:01:28;;;;;;;46.85;22.95;;;;;;;;;;5091025;28;20850;-75
2022/12/02 10:04:18;;;;;;;50.13;22.98;;;;;;;;;;5105295;28;20458;-74
2022/12/02 10:07:07;;;;;;;44.50;21.70;;;;;;;;;;5106191;28;20031;-75
2022/12/02 10:09:53;;;;;;;42.63;20.10;;;;;;;;;;5103129;28;20035;-75
2022/12/02 10:12:39;;;;;;;42.97;21.45;;;;;;;;;;5091419;28;20041;-74
2022/12/02 10:15:27;;;;;;;49.63;22.90;;;;;;;;;;5105841;28;20019;-74
2022/12/02 10:18:21;;;;;;;45.40;20.55;;;;;;;;;;5106783;28;20081;-74
2022/12/02 10:21:06;;;;;;;43.03;20.40;;;;;;;;;;5106172;28;20020;-75
2022/12/02 10:23:52;;;;;;;47.92;22.05;;;;;;;;;;5105251;28;20020;-74
2022/12/02 10:26:49;;;;;;;44.70;22.85;;;;;;;;;;5106954;28;20465;-74
2022/12/02 10:29:34;;;;;;;49.95;23.55;;;;;;;;;;5103783;28;20031;-74
2022/12/02 10:32:21;;;;;;;47.78;23.55;;;;;;;;;;5104835;28;20096;-75
2022/12/02 10:35:09;;;;;;;48.20;22.75;;;;;;;;;;5105638;28;20034;-74
2022/12/02 10:37:54;;;;;;;47.65;22.98;;;;;;;;;;5098747;28;20476;-74
2022/12/02 10:40:40;;;;;;;46.40;22.92;;;;;;;;;;5084893;28;20452;-75
2022/12/02 10:43:25;;;;;;;45.58;23.67;;;;;;;;;;5095885;28;20042;-74
2022/12/02 10:46:13;;;;;;;48.17;24.13;;;;;;;;;;5085317;28;20028;-75
2022/12/02 10:49:13;;;;;;;44.85;23.27;;;;;;;;;;5069498;28;20032;-75
2022/12/02 10:52:06;;;;;;;49.55;23.23;;;;;;;;;;5085371;28;20036;-75
2022/12/02 10:54:52;;;;;;;56.08;25.45;;;;;;;;;;5084554;28;20032;-76
2022/12/02 10:57:38;;;;;;;50.30;23.25;;;;;;;;;;5086877;28;20028;-75
2022/12/02 11:00:27;;;;;;;48.40;24.92;;;;;;;;;;5081967;28;20107;-76
2022/12/02 11:03:13;;;;;;;48.92;22.33;;;;;;;;;;5068749;28;20016;-75
2022/12/02 11:05:59;;;;;;;48.40;23.02;;;;;;;;;;5085141;28;20020;-76
2022/12/02 11:08:46;;;;;;;46.88;22.95;;;;;;;;;;5082142;28;20107;-76
2022/12/02 11:11:32;;;;;;;46.00;22.52;;;;;;;;;;5084327;28;20028;-76
2022/12/02 11:14:41;;;;;;;46.00;21.85;;;;;;;;;;5083210;28;20436;-75
2022/12/02 11:17:45;;;;;;;42.35;21.10;;;;;;;;;;5086123;28;20142;-75
2022/12/02 11:20:32;;;;;;;45.78;22.65;;;;;;;;;;5081872;28;20742;-76
2022/12/02 11:23:22;;;;;;;45.67;21.92;;;;;;;;;;5084187;28;20050;-75
2022/12/02 11:26:11;;;;;;;49.80;23.98;;;;;;;;;;5071550;28;20379;-74
2022/12/02 11:29:12;;;;;;;45.20;23.50;;;;;;;;;;5083078;28;20554;-75
2022/12/02 11:32:03;;;;;;;47.42;22.10;;;;;;;;;;5072622;28;20033;-75
2022/12/02 11:34:50;;;;;;;46.33;21.58;;;;;;;;;;5073483;28;20016;-75
2022/12/02 11:37:37;;;;;;;44.25;22.77;;;;;;;;;;5076801;28;20364;-75
2022/12/02 11:40:22;;;;;;;43.75;22.80;;;;;;;;;;5085153;28;20035;-76
2022/12/02 11:43:27;;;;;;;44.53;23.20;;;;;;;;;;5087249;28;20327;-74
2022/12/02 11:46:17;;;;;;;41.38;21.77;;;;;;;;;;5097137;28;20443;-74
2022/12/02 11:49:17;;;;;;;49.45;22.27;;;;;;;;;;5069077;28;20034;-74
2022/12/02 11:52:10;;;;;;;42.08;21.63;;;;;;;;;;5074053;28;20031;-74
2022/12/02 11:55:04;;;;;;;42.35;21.60;;;;;;;;;;5090896;28;20031;-74
2022/12/02 11:57:54;;;;;;;45.72;22.60;;;;;;;;;;5090373;28;20452;-75
2022/12/02 12:00:44;;;;;;;43.45;21.92;;;;;;;;;;5071334;28;20031;-75
2022/12/02 12:03:29;;;;;;;43.72;21.95;;;;;;;;;;5072970;28;20024;-75
2022/12/02 12:06:23;;;;;;;50.05;22.40;;;;;;;;;;5095651;28;20444;-76
2022/12/02 12:09:10;;;;;;;44.08;21.23;;;;;;;;;;5098515;28;20032;-75
2022/12/02 12:12:14;;;;;;;47.28;21.00;;;;;;;;;;5087703;28;20050;-74
2022/12/02 12:15:02;;;;;;;46.00;22.52;;;;;;;;;;5077674;28;20456;-75
2022/12/02 12:17:47;;;;;;;46.08;22.80;;;;;;;;;;5095593;28;20084;-73
2022/12/02 12:20:33;;;;;;;42.40;21.65;;;;;;;;;;5088291;28;20024;-73
2022/12/02 12:23:30;;;;;;;52.42;23.27;;;;;;;;;;5103550;28;20023;-76
2022/12/02 12:26:32;;;;;;;49.05;21.48;;;;;;;;;;5088334;28;20024;-73
2022/12/02 12:29:18;;;;;;;51.25;22.65;;;;;;;;;;5088552;28;20016;-74
2022/12/02 12:32:05;;;;;;;54.35;23.23;;;;;;;;;;5098301;28;20031;-76
2022/12/02 12:34:50;;;;;;;53.80;22.20;;;;;;;;;;5101597;28;20023;-74
2022/12/02 12:37:36;;;;;;;44.35;21.67;;;;;;;;;;5108302;28;20052;-75
2022/12/02 12:40:21;;;;;;;48.42;22.90;;;;;;;;;;5090192;28;20435;-78
2022/12/02 12:43:07;;;;;;;47.47;23.38;;;;;;;;;;5095178;28;20096;-74
2022/12/02 12:45:53;;;;;;;52.85;22.98;;;;;;;;;;5108032;28;20120;-75
2022/12/02 12:48:38;;;;;;;45.83;22.73;;;;;;;;;;5105978;28;20049;-73
2022/12/02 12:51:24;;;;;;;47.20;24.35;;;;;;;;;;5107172;28;20034;-73
2022/12/02 12:54:10;;;;;;;48.55;26.08;;;;;;;;;;5103852;28;20107;-73
2022/12/02 12:56:55;;;;;;;48.92;23.52;;;;;;;;;;5089003;28;20445;-74
2022/12/02 12:59:41;;;;;;;40.70;20.77;;;;;;;;;;5086387;28;20026;-72
2022/12/02 13:02:27;;;;;;;44.13;21.25;;;;;;;;;;5105865;28;20023;-73
2022/12/02 13:05:12;;;;;;;46.92;22.80;;;;;;;;;;5105292;28;20018;-72
2022/12/02 13:07:58;;;;;;;38.95;21.48;;;;;;;;;;5089687;28;20039;-72
2022/12/02 13:10:43;;;;;;;39.67;20.77;;;;;;;;;;5086531;28;20031;-73
2022/12/02 13:13:29;;;;;;;43.90;21.52;;;;;;;;;;5090162;28;20050;-72
2022/12/02 13:16:15;;;;;;;43.50;21.92;;;;;;;;;;5105918;28;20463;-73
2022/12/02 13:19:00;;;;;;;47.65;22.27;;;;;;;;;;5087739;28;20039;-72
2022/12/02 13:21:46;;;;;;;38.65;20.38;;;;;;;;;;5104753;28;20016;-74
2022/12/02 13:24:32;;;;;;;43.45;22.75;;;;;;;;;;5105519;28;20039;-73
2022/12/02 13:27:17;;;;;;;48.95;24.10;;;;;;;;;;5103546;28;20023;-73
2022/12/02 13:30:04;;;;;;;41.20;22.33;;;;;;;;;;5087074;28;20035;-73
2022/12/02 13:32:50;;;;;;;50.45;24.00;;;;;;;;;;5104279;28;20019;-72
2022/12/02 13:35:35;;;;;;;49.00;22.92;;;;;;;;;;5091233;28;20037;-76
2022/12/02 13:38:21;;;;;;;40.58;20.98;;;;;;;;;;5077284;28;20090;-72
2022/12/02 13:41:07;;;;;;;38.83;20.55;;;;;;;;;;5070629;28;20024;-73
2022/12/02 13:43:52;;;;;;;39.05;19.00;;;;;;;;;;5091490;28;20015;-74
2022/12/02 13:46:38;;;;;;;42.45;21.13;;;;;;;;;;5091376;28;20474;-73
2022/12/02 13:49:24;;;;;;;40.90;20.27;;;;;;;;;;5088396;28;20039;-73
2022/12/02 13:52:09;;;;;;;40.28;20.00;;;;;;;;;;5095884;28;20055;-74
2022/12/02 13:54:55;;;;;;;41.05;20.90;;;;;;;;;;5069373;28;20051;-73
2022/12/02 13:57:40;;;;;;;43.65;22.98;;;;;;;;;;5089420;28;20100;-75
2022/12/02 14:00:26;;;;;;;38.28;20.85;;;;;;;;;;5068635;28;20039;-73
2022/12/02 14:03:12;;;;;;;41.35;21.15;;;;;;;;;;5091651;28;20477;-74
2022/12/02 14:05:57;;;;;;;39.28;21.75;;;;;;;;;;5094000;28;20035;-75
2022/12/02 14:08:43;;;;;;;41.63;22.00;;;;;;;;;;5069263;28;20413;-73
2022/12/02 14:11:28;;;;;;;40.80;21.33;;;;;;;;;;5089210;28;20318;-74
2022/12/02 14:14:14;;;;;;;43.53;24.35;;;;;;;;;;5071435;28;20049;-74
2022/12/02 14:17:00;;;;;;;42.28;21.65;;;;;;;;;;5086724;28;20028;-74
2022/12/02 14:19:45;;;;;;;39.72;19.55;;;;;;;;;;5090936;28;20360;-73
2022/12/02 14:22:31;;;;;;;45.25;23.10;;;;;;;;;;5097403;28;20016;-74
2022/12/02 14:25:18;;;;;;;40.83;21.42;;;;;;;;;;5095009;28;20016;-74
2022/12/02 14:28:03;;;;;;;39.33;21.23;;;;;;;;;;5068131;28;20039;-73
2022/12/02 14:30:49;;;;;;;41.75;19.70;;;;;;;;;;5067847;28;20387;-74
2022/12/02 14:33:34;;;;;;;41.50;20.92;;;;;;;;;;5079323;28;20036;-73
2022/12/02 14:36:20;;;;;;;37.70;21.35;;;;;;;;;;5057466;28;20081;-74
2022/12/02 14:39:06;;;;;;;36.88;21.77;;;;;;;;;;5079348;28;20032;-74
2022/12/02 14:41:51;;;;;;;39.58;22.02;;;;;;;;;;5079693;28;20024;-73
2022/12/02 14:44:37;;;;;;;41.58;22.15;;;;;;;;;;5082397;28;20024;-74
2022/12/02 14:47:23;;;;;;;40.70;21.52;;;;;;;;;;5080550;28;20023;-73
2022/12/02 14:50:08;;;;;;;44.47;22.98;;;;;;;;;;5077673;28;20063;-74
2022/12/02 14:52:55;;;;;;;39.30;21.20;;;;;;;;;;5068822;28;20055;-72
2022/12/02 14:55:40;;;;;;;35.38;20.17;;;;;;;;;;5070473;28;20457;-74
2022/12/02 14:58:26;;;;;;;37.13;19.98;;;;;;;;;;5082640;28;20024;-75
2022/12/02 15:01:12;;;;;;;38.47;20.45;;;;;;;;;;5069226;28;20341;-73
2022/12/02 15:03:57;;;;;;;33.55;19.45;;;;;;;;;;5082825;28;20035;-74
2022/12/02 15:06:43;;;;;;;33.67;17.92;;;;;;;;;;5082408;28;20046;-74
2022/12/02 15:09:29;;;;;;;31.70;17.80;;;;;;;;;;5080538;28;20028;-74
2022/12/02 15:12:15;;;;;;;38.30;19.13;;;;;;;;;;5080478;28;20080;-75
2022/12/02 15:15:00;;;;;;;34.33;18.25;;;;;;;;;;5069401;28;20107;-75
2022/12/02 15:17:46;;;;;;;33.58;17.95;;;;;;;;;;5066720;28;20016;-74
2022/12/02 15:20:31;;;;;;;34.13;19.55;;;;;;;;;;5078742;28;20025;-73
2022/12/02 15:23:17;;;;;;;39.05;20.88;;;;;;;;;;5069514;28;20012;-75
2022/12/02 15:26:03;;;;;;;35.85;19.38;;;;;;;;;;5069583;28;20024;-74
2022/12/02 15:28:48;;;;;;;36.55;19.13;;;;;;;;;;5079092;28;20024;-75
2022/12/02 15:31:34;;;;;;;34.53;19.15;;;;;;;;;;5082302;28;20024;-74
2022/12/02 15:34:19;;;;;;;34.95;18.42;;;;;;;;;;5081823;28;20020;-74
2022/12/02 15:37:05;;;;;;;32.05;17.73;;;;;;;;;;5090029;28;20502;-75
2022/12/02 15:39:51;;;;;;;35.53;18.27;;;;;;;;;;5098918;28;20085;-74
2022/12/02 15:42:36;;;;;;;36.38;19.83;;;;;;;;;;5114704;28;20055;-74
2022/12/02 15:45:22;;;;;;;40.65;21.27;;;;;;;;;;5108879;28;20119;-73
2022/12/02 15:48:07;;;;;;;39.03;21.63;;;;;;;;;;5102895;28;20024;-75
2022/12/02 15:50:53;;;;;;;36.33;20.45;;;;;;;;;;5087910;28;20020;-75
2022/12/02 15:53:39;;;;;;;37.85;20.23;;;;;;;;;;5107074;28;20127;-75
2022/12/02 15:56:25;;;;;;;40.35;20.40;;;;;;;;;;5105500;28;20066;-74
2022/12/02 15:59:12;;;;;;;41.97;19.55;;;;;;;;;;5104281;28;20023;-75
2022/12/02 16:01:58;;;;;;;41.50;20.52;;;;;;;;;;5090236;28;20500;-73
2022/12/02 16:04:43;;;;;;;34.92;20.13;;;;;;;;;;5106659;28;20019;-74
2022/12/02 16:07:29;;;;;;;37.35;20.30;;;;;;;;;;5105251;28;20032;-74
2022/12/02 16:10:15;;;;;;;35.88;21.08;;;;;;;;;;5102247;28;20499;-74
2022/12/02 16:13:00;;;;;;;46.85;22.17;;;;;;;;;;5106560;28;20032;-75
2022/12/02 16:15:46;;;;;;;39.92;21.88;;;;;;;;;;5105413;28;20456;-75